Time;durP1;ratioP1;P1;durP2;ratioP2;P2;SDS_P1;SDS_P2;PMS_P1;PMS_P2;Temp;Humidity;BMP_temperature;BMP_pressure;BME280_temperature;BME280_humidity;BME280_pressure;Samples;Min_cycle;Max_cycle;Signal;HPM_P1;HPM_P2
2024/01/25 00:01:22;;;;;;;24.63;16.47;;;;;;;3.96;60.20;95451.03;5008819;28;20234;-71
2024/01/25 00:03:47;;;;;;;23.77;16.97;;;;;;;3.89;59.94;95456.72;5024800;28;20261;-71
2024/01/25 00:06:13;;;;;;;23.30;16.70;;;;;;;3.86;59.83;95452.56;5016747;28;20191;-71
2024/01/25 00:08:38;;;;;;;22.57;16.63;;;;;;;3.81;60.11;95452.03;5010837;28;20194;-70
2024/01/25 00:11:05;;;;;;;21.33;16.70;;;;;;;3.88;60.52;95447.25;5012582;28;20507;-70
2024/01/25 00:13:30;;;;;;;23.73;17.70;;;;;;;3.91;59.85;95434.88;5017576;28;20242;-70
2024/01/25 00:15:56;;;;;;;23.83;17.37;;;;;;;3.98;60.05;95417.94;5026047;28;20356;-71
2024/01/25 00:18:21;;;;;;;23.77;17.23;;;;;;;3.98;60.06;95401.47;5010598;28;20226;-69
2024/01/25 00:20:47;;;;;;;19.37;15.53;;;;;;;4.08;59.83;95380.88;5012834;28;20273;-69
2024/01/25 00:23:12;;;;;;;19.40;15.67;;;;;;;4.03;59.04;95362.97;5012772;28;20226;-69
2024/01/25 00:25:38;;;;;;;17.37;13.53;;;;;;;4.09;58.46;95351.31;5008207;28;20222;-70
2024/01/25 00:28:03;;;;;;;17.87;11.23;;;;;;;4.12;57.42;95331.13;5008658;28;20302;-70
2024/01/25 00:30:29;;;;;;;15.33;10.93;;;;;;;4.07;57.32;95328.00;5024530;28;20222;-70
2024/01/25 00:32:56;;;;;;;17.60;11.70;;;;;;;4.23;57.33;95338.19;5025060;28;20199;-70
2024/01/25 00:35:22;;;;;;;18.63;11.13;;;;;;;4.16;57.62;95352.56;5008898;28;20218;-70
2024/01/25 00:37:49;;;;;;;16.20;12.30;;;;;;;4.14;57.82;95354.44;5026127;28;20226;-69
2024/01/25 00:40:14;;;;;;;14.87;11.13;;;;;;;4.10;58.39;95358.19;5007589;28;20319;-71
2024/01/25 00:42:52;;;;;;;16.13;11.23;;;;;;;4.15;58.39;95348.31;5008066;28;20337;-71
2024/01/25 00:45:19;;;;;;;15.37;11.17;;;;;;;4.20;58.56;95344.44;5003571;28;20261;-70
2024/01/25 00:47:45;;;;;;;17.03;12.70;;;;;;;4.19;58.41;95334.97;5000698;28;20183;-69
2024/01/25 00:50:11;;;;;;;18.57;12.13;;;;;;;4.09;58.49;95328.75;5025086;28;20226;-69
2024/01/25 00:52:37;;;;;;;18.10;13.23;;;;;;;4.01;58.04;95319.78;5024001;28;20246;-69
2024/01/25 00:55:03;;;;;;;15.40;12.40;;;;;;;4.03;58.08;95318.72;5011183;28;20245;-71
2024/01/25 00:57:28;;;;;;;14.47;11.53;;;;;;;4.11;57.76;95328.63;5010081;28;20234;-70
2024/01/25 00:59:55;;;;;;;16.87;12.33;;;;;;;4.27;57.35;95352.66;5009525;28;20262;-70
2024/01/25 01:02:22;;;;;;;17.83;13.27;;;;;;;4.22;58.06;95352.13;5010024;28;20222;-70
2024/01/25 01:04:48;;;;;;;16.67;12.57;;;;;;;4.14;58.31;95362.25;5025753;28;20250;-70
2024/01/25 01:07:15;;;;;;;17.83;12.63;;;;;;;4.13;58.75;95357.97;5003720;28;20218;-69
2024/01/25 01:09:40;;;;;;;21.43;13.77;;;;;;;4.22;58.45;95365.16;5009950;28;20223;-69
2024/01/25 01:12:07;;;;;;;17.53;13.30;;;;;;;4.17;59.10;95362.88;5009955;28;20214;-70
2024/01/25 01:14:32;;;;;;;20.80;13.70;;;;;;;4.16;59.17;95345.59;5007044;28;20241;-72
2024/01/25 01:16:58;;;;;;;16.90;12.73;;;;;;;4.07;58.94;95335.00;5025657;28;20313;-71
2024/01/25 01:19:24;;;;;;;18.57;13.20;;;;;;;3.89;58.85;95327.47;5025627;28;20234;-70
2024/01/25 01:21:49;;;;;;;18.80;13.80;;;;;;;3.79;58.95;95317.78;5009057;28;20222;-71
2024/01/25 01:24:14;;;;;;;18.97;14.20;;;;;;;3.68;58.91;95295.09;5025553;28;20253;-71
2024/01/25 01:26:41;;;;;;;19.77;14.83;;;;;;;3.70;58.84;95278.47;5005103;28;20191;-72
2024/01/25 01:29:07;;;;;;;23.20;17.13;;;;;;;3.66;58.98;95271.81;5021794;28;20215;-72
2024/01/25 01:31:33;;;;;;;23.00;17.93;;;;;;;3.74;58.80;95279.09;5010067;28;20223;-72
2024/01/25 01:33:59;;;;;;;24.80;20.47;;;;;;;3.82;58.74;95282.00;5011831;28;20221;-74
2024/01/25 01:36:24;;;;;;;29.17;20.67;;;;;;;3.94;58.47;95286.38;5008389;28;20202;-74
2024/01/25 01:38:49;;;;;;;30.73;20.87;;;;;;;3.97;58.29;95283.56;5025218;28;20182;-73
2024/01/25 01:41:15;;;;;;;25.57;19.30;;;;;;;4.10;58.26;95278.34;5027608;28;20222;-72
2024/01/25 01:43:41;;;;;;;25.93;19.47;;;;;;;4.11;58.43;95276.56;5029247;28;20238;-73
2024/01/25 01:46:11;;;;;;;27.70;19.83;;;;;;;4.12;58.94;95281.69;5012443;28;20285;-73
2024/01/25 01:48:40;;;;;;;24.23;18.40;;;;;;;4.17;59.10;95271.78;5028561;28;20233;-72
2024/01/25 01:51:05;;;;;;;22.27;17.20;;;;;;;4.20;58.69;95265.53;5013663;28;20191;-73
2024/01/25 01:53:33;;;;;;;22.03;17.43;;;;;;;4.16;58.62;95248.47;5029618;28;20234;-73
2024/01/25 01:55:59;;;;;;;21.43;16.60;;;;;;;4.22;58.26;95248.03;5028182;28;20226;-73
2024/01/25 01:58:26;;;;;;;18.57;15.43;;;;;;;4.18;58.81;95242.22;5010429;28;20225;-73
2024/01/25 02:00:53;;;;;;;18.50;14.93;;;;;;;4.24;58.76;95256.56;5013850;28;20218;-73
2024/01/25 02:03:19;;;;;;;18.00;14.53;;;;;;;4.34;57.88;95252.38;5012783;28;20301;-74
2024/01/25 02:05:44;;;;;;;20.57;15.23;;;;;;;4.28;58.29;95258.03;5029306;28;20250;-73
2024/01/25 02:08:10;;;;;;;20.73;15.13;;;;;;;4.25;58.34;95254.78;5013139;28;20226;-73
2024/01/25 02:10:36;;;;;;;21.53;15.10;;;;;;;4.22;58.45;95248.03;5014558;28;20222;-73
2024/01/25 02:13:01;;;;;;;21.57;15.30;;;;;;;4.28;58.77;95254.59;5027589;28;20219;-73
2024/01/25 02:15:26;;;;;;;19.17;14.57;;;;;;;4.28;58.64;95242.41;5013729;28;20273;-74
2024/01/25 02:17:52;;;;;;;22.07;15.50;;;;;;;4.26;59.01;95244.28;5027075;28;20276;-73
2024/01/25 02:20:18;;;;;;;24.57;15.47;;;;;;;4.33;59.04;95255.06;5028105;28;20226;-73
2024/01/25 02:22:44;;;;;;;19.73;15.17;;;;;;;4.22;59.35;95252.41;5011738;28;20227;-72
2024/01/25 02:25:09;;;;;;;20.20;14.97;;;;;;;4.27;59.07;95250.31;5027420;28;20748;-72
2024/01/25 02:27:38;;;;;;;18.47;14.13;;;;;;;4.27;59.19;95245.09;5009572;28;20226;-74
2024/01/25 02:30:05;;;;;;;18.53;14.47;;;;;;;4.27;59.50;95235.53;5012344;28;20182;-73
2024/01/25 02:32:31;;;;;;;18.80;14.30;;;;;;;4.36;59.44;95231.47;5028011;28;20249;-73
2024/01/25 02:34:56;;;;;;;14.50;12.77;;;;;;;4.36;59.65;95224.47;5012734;28;20218;-73
2024/01/25 02:37:21;;;;;;;17.07;12.97;;;;;;;4.37;59.04;95230.50;5012243;28;20218;-74
2024/01/25 02:39:47;;;;;;;17.37;13.20;;;;;;;4.29;59.18;95218.03;5025310;28;20216;-73
2024/01/25 02:42:14;;;;;;;16.53;13.40;;;;;;;4.32;58.81;95227.41;5010888;28;20242;-74
2024/01/25 02:44:39;;;;;;;17.73;12.80;;;;;;;4.17;59.54;95224.09;5012908;28;20284;-74
2024/01/25 02:47:05;;;;;;;16.97;12.70;;;;;;;4.27;59.29;95226.88;5012835;28;20250;-73
2024/01/25 02:49:30;;;;;;;21.53;13.23;;;;;;;4.19;59.52;95228.25;4995155;28;20230;-72
2024/01/25 02:51:55;;;;;;;17.20;12.27;;;;;;;4.28;59.38;95226.78;5027613;28;20218;-74
2024/01/25 02:54:21;;;;;;;18.97;12.27;;;;;;;4.25;59.22;95220.94;5010737;28;20206;-72
2024/01/25 02:56:46;;;;;;;13.97;11.23;;;;;;;4.19;59.17;95223.03;5013067;28;20269;-71
2024/01/25 02:59:12;;;;;;;17.90;11.50;;;;;;;4.16;59.32;95223.25;5011477;28;20277;-71
2024/01/25 03:01:41;;;;;;;13.87;10.60;;;;;;;4.22;59.51;95227.19;5028858;28;20234;-71
2024/01/25 03:04:07;;;;;;;16.43;10.83;;;;;;;4.25;59.55;95232.22;5027650;28;20235;-70
2024/01/25 03:06:32;;;;;;;16.03;10.97;;;;;;;4.28;59.03;95239.81;5013722;28;20223;-71
2024/01/25 03:08:58;;;;;;;15.97;11.33;;;;;;;4.18;59.51;95237.00;5026576;28;20233;-71
2024/01/25 03:11:23;;;;;;;14.30;10.80;;;;;;;4.22;59.94;95229.81;5027467;28;20229;-71
2024/01/25 03:13:49;;;;;;;10.77;8.33;;;;;;;4.30;60.48;95224.06;5027753;28;20222;-71
2024/01/25 03:16:14;;;;;;;3.87;2.90;;;;;;;4.43;63.49;95238.69;5027460;28;20250;-73
2024/01/25 03:18:39;;;;;;;2.80;2.00;;;;;;;4.65;64.00;95224.13;5010642;28;20259;-73
2024/01/25 03:21:05;;;;;;;3.67;1.60;;;;;;;4.91;64.21;95224.03;5027608;28;20191;-73
2024/01/25 03:23:30;;;;;;;1.63;1.20;;;;;;;5.19;64.12;95222.84;5027165;28;20218;-74
2024/01/25 03:25:55;;;;;;;1.40;1.03;;;;;;;5.43;63.33;95215.78;5010318;28;20219;-73
2024/01/25 03:28:21;;;;;;;1.93;1.10;;;;;;;5.50;63.00;95208.31;5028055;28;20227;-74
2024/01/25 03:30:47;;;;;;;1.97;1.13;;;;;;;5.64;62.85;95217.69;5026166;28;20280;-72
2024/01/25 03:33:12;;;;;;;0.97;0.80;;;;;;;5.73;62.77;95207.41;5012152;28;20262;-73
2024/01/25 03:35:38;;;;;;;1.20;0.83;;;;;;;5.89;62.45;95227.94;5013169;28;20210;-73
2024/01/25 03:38:04;;;;;;;0.83;0.70;;;;;;;6.08;61.90;95232.59;5022565;28;20219;-74
2024/01/25 03:40:29;;;;;;;1.07;0.77;;;;;;;6.21;61.70;95205.53;5011249;28;20218;-73
2024/01/25 03:42:55;;;;;;;1.13;0.80;;;;;;;6.24;61.08;95195.69;5026485;28;20235;-74
2024/01/25 03:45:20;;;;;;;0.90;0.70;;;;;;;6.14;61.22;95177.28;5010427;28;20227;-73
2024/01/25 03:47:46;;;;;;;1.27;0.90;;;;;;;6.23;61.09;95172.28;5010937;28;20183;-74
2024/01/25 03:50:11;;;;;;;2.00;0.97;;;;;;;6.22;60.85;95175.84;5010928;28;20226;-74
2024/01/25 03:52:37;;;;;;;1.60;0.83;;;;;;;6.24;60.78;95176.56;5010689;28;20223;-72
2024/01/25 03:55:03;;;;;;;0.90;0.80;;;;;;;6.34;60.09;95178.34;5025691;28;20240;-72
2024/01/25 03:57:28;;;;;;;1.30;0.80;;;;;;;6.33;59.64;95171.44;5026410;28;20350;-72
2024/01/25 03:59:53;;;;;;;3.33;1.10;;;;;;;6.31;59.66;95154.25;5010123;28;20206;-72
2024/01/25 04:02:19;;;;;;;2.77;0.90;;;;;;;6.28;59.54;95147.50;5009629;28;20222;-73
2024/01/25 04:04:44;;;;;;;5.63;1.43;;;;;;;6.30;59.52;95163.84;5008317;28;20306;-73
2024/01/25 04:07:10;;;;;;;1.87;0.97;;;;;;;6.27;59.42;95158.03;5026279;28;20233;-73
2024/01/25 04:09:35;;;;;;;1.30;1.03;;;;;;;6.30;59.35;95156.00;5011739;28;20236;-73
2024/01/25 04:12:00;;;;;;;1.70;1.00;;;;;;;6.42;58.95;95151.59;5011595;28;20190;-75
2024/01/25 04:14:26;;;;;;;1.57;0.87;;;;;;;6.25;58.85;95146.88;5019710;28;20268;-76
2024/01/25 04:16:51;;;;;;;1.53;0.80;;;;;;;6.37;58.46;95151.97;5026314;28;20240;-74
2024/01/25 04:19:17;;;;;;;1.63;1.00;;;;;;;6.41;58.47;95152.53;5026338;28;20225;-74
2024/01/25 04:21:42;;;;;;;2.20;1.10;;;;;;;6.38;58.57;95147.56;5009212;28;20231;-75
2024/01/25 04:24:08;;;;;;;1.17;0.87;;;;;;;6.49;58.36;95136.25;5025418;28;20217;-75
2024/01/25 04:26:33;;;;;;;1.43;0.97;;;;;;;6.50;58.00;95154.44;5009882;28;20318;-75
2024/01/25 04:28:58;;;;;;;1.50;1.30;;;;;;;6.52;58.28;95141.22;5010901;28;20218;-75
2024/01/25 04:31:24;;;;;;;1.63;1.10;;;;;;;6.73;57.00;95155.16;5026179;28;20227;-75
2024/01/25 04:33:49;;;;;;;2.80;0.90;;;;;;;6.58;57.43;95141.56;5009438;28;20333;-75
2024/01/25 04:36:15;;;;;;;2.30;1.30;;;;;;;6.51;58.23;95150.03;5009698;28;20187;-76
2024/01/25 04:38:40;;;;;;;1.73;1.20;;;;;;;6.51;57.21;95150.03;5025387;28;20190;-74
2024/01/25 04:41:06;;;;;;;1.87;1.30;;;;;;;6.54;56.70;95149.78;5008102;28;20230;-76
2024/01/25 04:43:38;;;;;;;2.20;1.60;;;;;;;6.51;57.08;95171.75;5024639;28;20238;-76
2024/01/25 04:46:04;;;;;;;3.17;1.80;;;;;;;6.39;57.30;95173.56;5006166;28;20230;-74
2024/01/25 04:48:30;;;;;;;3.27;1.97;;;;;;;6.44;57.27;95183.63;5006047;28;20237;-75
2024/01/25 04:50:59;;;;;;;2.37;2.10;;;;;;;6.35;57.18;95177.38;5026140;28;20183;-73
2024/01/25 04:53:25;;;;;;;2.77;2.37;;;;;;;6.26;57.58;95183.34;5007812;28;20233;-73
2024/01/25 04:55:50;;;;;;;3.70;2.17;;;;;;;6.25;57.10;95186.88;5009340;28;20215;-73
2024/01/25 04:58:16;;;;;;;4.67;2.70;;;;;;;6.14;57.32;95185.13;5025670;28;20286;-73
2024/01/25 05:00:41;;;;;;;2.70;2.23;;;;;;;6.17;57.21;95179.69;5009737;28;20229;-74
2024/01/25 05:03:07;;;;;;;3.83;2.40;;;;;;;6.17;56.65;95184.91;5009675;28;20191;-73
2024/01/25 05:05:32;;;;;;;3.83;2.90;;;;;;;6.12;56.51;95186.19;5006200;28;20215;-71
2024/01/25 05:07:58;;;;;;;3.97;2.60;;;;;;;6.09;56.90;95218.59;5022831;28;20233;-74
2024/01/25 05:10:25;;;;;;;5.97;2.13;;;;;;;6.05;56.66;95219.78;5007582;28;20222;-73
2024/01/25 05:12:50;;;;;;;4.00;2.50;;;;;;;6.08;56.61;95216.94;5009089;28;20225;-73
2024/01/25 05:15:16;;;;;;;2.87;2.23;;;;;;;5.97;56.61;95214.34;5009498;28;20250;-73
2024/01/25 05:17:42;;;;;;;3.70;2.67;;;;;;;5.93;56.61;95231.13;5022806;28;20225;-74
2024/01/25 05:20:08;;;;;;;3.93;2.30;;;;;;;5.89;56.18;95240.16;5008302;28;20276;-73
2024/01/25 05:22:40;;;;;;;2.50;1.60;;;;;;;5.90;55.78;95247.84;5010017;28;20219;-72
2024/01/25 05:25:06;;;;;;;2.33;1.80;;;;;;;6.04;55.57;95257.28;5007605;28;20227;-76
2024/01/25 05:27:31;;;;;;;3.47;1.97;;;;;;;6.01;55.67;95244.44;5008471;28;20318;-75
2024/01/25 05:29:57;;;;;;;2.63;1.63;;;;;;;6.10;55.00;95238.53;5004849;28;20321;-75
2024/01/25 05:32:22;;;;;;;3.60;1.63;;;;;;;6.07;54.68;95246.63;5024034;28;20222;-75
2024/01/25 05:34:47;;;;;;;3.10;1.50;;;;;;;6.19;54.40;95244.81;5023439;28;20224;-75
2024/01/25 05:37:13;;;;;;;1.83;1.30;;;;;;;6.22;54.03;95248.97;5010119;28;20210;-75
2024/01/25 05:39:38;;;;;;;2.67;1.40;;;;;;;6.28;53.87;95249.34;5006053;28;20215;-75
2024/01/25 05:42:04;;;;;;;3.30;1.23;;;;;;;6.26;53.71;95251.22;5010056;28;20238;-75
2024/01/25 05:44:30;;;;;;;1.83;1.13;;;;;;;6.39;53.74;95256.34;5010598;28;20223;-75
2024/01/25 05:46:55;;;;;;;5.83;1.33;;;;;;;6.29;53.28;95260.59;5010299;28;20210;-76
2024/01/25 05:49:21;;;;;;;5.27;1.20;;;;;;;6.38;53.21;95260.69;5028307;28;20222;-76
2024/01/25 05:51:46;;;;;;;3.03;1.37;;;;;;;6.39;52.98;95264.16;5007750;28;20219;-76
2024/01/25 05:54:12;;;;;;;4.03;1.40;;;;;;;6.38;52.92;95267.72;5006657;28;20242;-75
2024/01/25 05:56:37;;;;;;;2.27;1.47;;;;;;;6.39;53.15;95267.59;5024892;28;20180;-76
2024/01/25 05:59:03;;;;;;;2.17;1.50;;;;;;;6.44;53.02;95274.22;4996671;28;20215;-75
2024/01/25 06:01:28;;;;;;;2.07;1.20;;;;;;;6.44;53.08;95279.47;5010112;28;20292;-75
2024/01/25 06:03:53;;;;;;;1.60;1.10;;;;;;;6.40;53.47;95286.72;5009126;28;20250;-76
2024/01/25 06:06:19;;;;;;;2.83;1.40;;;;;;;6.42;53.54;95290.03;5024559;28;20197;-76
2024/01/25 06:08:44;;;;;;;2.40;1.50;;;;;;;6.57;53.29;95286.22;5012702;28;20179;-77
2024/01/25 06:11:11;;;;;;;3.67;1.77;;;;;;;6.60;53.17;95279.91;5010768;28;20211;-76
2024/01/25 06:13:36;;;;;;;5.73;1.80;;;;;;;6.56;53.31;95287.16;4984519;28;20307;-76
2024/01/25 06:16:02;;;;;;;2.73;1.70;;;;;;;6.59;53.13;95292.16;5022530;28;20282;-75
2024/01/25 06:18:27;;;;;;;5.23;1.87;;;;;;;6.65;53.08;95283.00;5006617;28;20204;-73
2024/01/25 06:20:53;;;;;;;2.30;1.60;;;;;;;6.56;52.96;95307.25;5009974;28;20257;-77
2024/01/25 06:23:18;;;;;;;2.50;1.80;;;;;;;6.47;53.32;95306.19;5006549;28;20228;-73
2024/01/25 06:25:44;;;;;;;3.30;1.57;;;;;;;6.54;53.12;95293.47;5023173;28;20226;-80
2024/01/25 06:28:09;;;;;;;3.57;1.63;;;;;;;6.48;53.49;95307.84;5025558;28;20216;-77
2024/01/25 06:30:35;;;;;;;3.43;1.73;;;;;;;6.39;53.78;95290.28;5025959;28;20296;-75
2024/01/25 06:33:00;;;;;;;3.57;2.07;;;;;;;6.43;53.74;95291.69;5027804;28;20191;-78
2024/01/25 06:35:25;;;;;;;3.27;1.40;;;;;;;6.54;53.26;95296.91;5030993;28;20219;-78
2024/01/25 06:37:51;;;;;;;4.80;1.67;;;;;;;6.56;53.42;95292.41;5014345;28;20290;-74
2024/01/25 06:40:16;;;;;;;3.10;1.67;;;;;;;6.60;53.15;95272.94;5028117;28;20225;-70
2024/01/25 06:42:42;;;;;;;3.83;1.80;;;;;;;6.62;52.88;95268.38;5027542;28;20338;-72
2024/01/25 06:45:08;;;;;;;3.83;1.73;;;;;;;6.53;53.42;95282.19;5027859;28;20256;-70
2024/01/25 06:47:33;;;;;;;3.50;1.50;;;;;;;6.44;53.62;95280.28;5010922;28;20218;-70
2024/01/25 06:49:59;;;;;;;4.77;1.90;;;;;;;6.53;53.51;95297.88;5011249;28;20214;-70
2024/01/25 06:52:24;;;;;;;5.20;2.00;;;;;;;6.67;53.09;95303.78;5011968;28;20277;-69
2024/01/25 06:54:49;;;;;;;3.27;1.60;;;;;;;6.47;53.59;95285.28;5008899;28;20214;-69
2024/01/25 06:57:15;;;;;;;4.90;1.90;;;;;;;6.59;53.47;95266.03;5009455;28;20183;-71
2024/01/25 06:59:40;;;;;;;4.73;2.00;;;;;;;6.60;53.19;95269.47;5009377;28;20268;-70
2024/01/25 07:02:06;;;;;;;6.17;2.27;;;;;;;6.67;53.27;95288.94;4984698;28;20223;-70
2024/01/25 07:04:32;;;;;;;4.73;2.00;;;;;;;6.57;53.07;95285.38;5027276;28;20198;-70
2024/01/25 07:06:59;;;;;;;7.40;2.00;;;;;;;6.60;53.29;95259.88;5009635;28;20322;-71
2024/01/25 07:09:25;;;;;;;5.07;1.93;;;;;;;6.71;53.49;95260.78;5010381;28;20280;-71
2024/01/25 07:11:50;;;;;;;4.00;1.80;;;;;;;6.73;52.87;95275.38;5012193;28;20238;-70
2024/01/25 07:14:16;;;;;;;2.93;1.90;;;;;;;6.70;52.82;95261.72;5026770;28;20175;-72
2024/01/25 07:16:41;;;;;;;5.87;1.97;;;;;;;6.68;52.58;95264.47;5013934;28;20211;-68
2024/01/25 07:19:07;;;;;;;4.57;2.13;;;;;;;6.62;52.86;95257.94;5026578;28;20294;-71
2024/01/25 07:21:32;;;;;;;5.17;2.10;;;;;;;6.66;52.70;95262.94;5010012;28;20222;-70
2024/01/25 07:24:04;;;;;;;3.27;1.43;;;;;;;6.63;52.62;95264.84;4994099;28;20231;-71
2024/01/25 07:26:30;;;;;;;5.43;1.87;;;;;;;6.69;52.54;95276.59;5025887;28;20182;-75
2024/01/25 07:28:59;;;;;;;4.77;2.20;;;;;;;6.78;52.57;95273.22;5035227;28;21059;-83
2024/01/25 07:31:28;;;;;;;6.43;2.20;;;;;;;6.71;51.90;95282.53;5011178;28;20261;-72
2024/01/25 07:33:54;;;;;;;5.37;1.90;;;;;;;6.82;52.18;95279.06;5027081;28;20239;-73
2024/01/25 07:36:20;;;;;;;5.33;1.93;;;;;;;6.83;52.06;95281.53;5028176;28;20226;-79
2024/01/25 07:38:49;;;;;;;6.07;2.00;;;;;;;6.75;52.39;95267.44;5011660;28;20227;-72
2024/01/25 07:41:15;;;;;;;6.33;2.40;;;;;;;6.73;51.94;95258.88;5026967;28;20304;-74
2024/01/25 07:43:41;;;;;;;4.30;1.80;;;;;;;6.74;52.01;95286.69;5013749;28;20243;-82
2024/01/25 07:46:07;;;;;;;4.30;1.97;;;;;;;6.80;51.76;95281.78;5025866;28;20233;-77
2024/01/25 07:48:32;;;;;;;5.80;2.63;;;;;;;6.89;51.78;95293.28;5013117;28;20227;-74
2024/01/25 07:50:58;;;;;;;5.90;1.80;;;;;;;6.97;51.20;95297.91;5009622;28;20223;-76
2024/01/25 07:53:23;;;;;;;3.57;1.80;;;;;;;6.93;51.41;95318.25;5011703;28;20274;-75
2024/01/25 07:55:49;;;;;;;6.60;2.07;;;;;;;6.85;51.29;95290.09;5025962;28;20237;-71
2024/01/25 07:58:15;;;;;;;5.07;2.23;;;;;;;6.98;50.86;95304.81;5011031;28;20297;-74
2024/01/25 08:00:40;;;;;;;3.50;1.97;;;;;;;6.94;51.19;95298.97;5015141;28;20227;-76
2024/01/25 08:03:06;;;;;;;4.03;2.07;;;;;;;6.87;51.10;95308.28;5007557;28;20215;-75
2024/01/25 08:05:31;;;;;;;5.50;2.20;;;;;;;7.13;50.55;95321.03;5010909;28;20199;-82
2024/01/25 08:07:57;;;;;;;8.37;2.63;;;;;;;7.03;50.45;95307.88;5009677;28;20186;-74
2024/01/25 08:10:25;;;;;;;4.20;2.27;;;;;;;7.12;50.44;95299.28;5009631;28;20210;-81
2024/01/25 08:12:51;;;;;;;6.30;2.63;;;;;;;7.05;51.08;95280.63;5011191;28;20302;-75
2024/01/25 08:15:20;;;;;;;4.97;2.50;;;;;;;7.03;50.86;95295.66;5012420;28;20329;-77
2024/01/25 08:17:45;;;;;;;7.37;3.50;;;;;;;7.15;50.25;95329.59;5012078;28;20229;-81
2024/01/25 08:20:13;;;;;;;5.10;2.30;;;;;;;7.16;49.88;95297.25;5032222;28;20186;-80
2024/01/25 08:22:40;;;;;;;6.37;2.73;;;;;;;7.16;49.56;95297.25;5028875;28;20253;-81
2024/01/25 08:25:06;;;;;;;6.40;2.43;;;;;;;7.17;49.28;95304.16;5028477;28;20222;-71
2024/01/25 08:27:32;;;;;;;5.87;2.57;;;;;;;7.30;49.35;95317.91;5009459;28;20297;-78
2024/01/25 08:29:57;;;;;;;4.17;2.10;;;;;;;7.21;48.77;95316.84;5012223;28;20226;-77
2024/01/25 08:32:23;;;;;;;5.90;2.53;;;;;;;7.36;48.86;95316.56;5024469;28;20183;-72
2024/01/25 08:34:48;;;;;;;5.20;2.17;;;;;;;7.40;48.45;95325.81;5011002;28;20239;-80
2024/01/25 08:37:14;;;;;;;5.73;2.33;;;;;;;7.32;48.59;95302.06;5015002;28;20210;-77
2024/01/25 08:39:39;;;;;;;4.83;2.37;;;;;;;7.42;47.99;95316.91;5011163;28;20281;-70
2024/01/25 08:42:06;;;;;;;5.33;2.73;;;;;;;7.36;48.01;95322.63;5025124;28;20237;-75
2024/01/25 08:44:32;;;;;;;4.63;2.10;;;;;;;7.48;48.17;95326.88;5026455;28;20289;-74
2024/01/25 08:46:57;;;;;;;6.27;2.10;;;;;;;7.38;48.01;95323.34;5010140;28;20213;-69
2024/01/25 08:49:23;;;;;;;5.47;2.40;;;;;;;7.49;47.65;95331.16;5024833;28;20216;-72
2024/01/25 08:51:48;;;;;;;4.93;2.50;;;;;;;7.59;47.51;95312.06;5011107;28;20253;-70
2024/01/25 08:54:14;;;;;;;5.03;2.53;;;;;;;7.60;48.11;95318.97;5029326;28;20250;-70
2024/01/25 08:56:39;;;;;;;4.73;2.70;;;;;;;7.68;47.86;95319.19;5009362;28;20191;-71
2024/01/25 08:59:05;;;;;;;4.00;2.40;;;;;;;7.65;47.57;95332.53;4992635;28;20187;-74
2024/01/25 09:01:30;;;;;;;5.50;2.13;;;;;;;7.73;47.77;95320.44;5025630;28;20242;-73
2024/01/25 09:04:02;;;;;;;6.30;2.67;;;;;;;7.92;46.86;95317.13;5026207;28;20231;-70
2024/01/25 09:06:27;;;;;;;5.43;2.80;;;;;;;7.94;47.14;95325.69;5010590;28;20219;-75
2024/01/25 09:08:53;;;;;;;7.23;2.60;;;;;;;8.04;46.81;95336.22;5011783;28;20225;-79
2024/01/25 09:11:19;;;;;;;5.90;2.20;;;;;;;7.87;47.53;95323.72;4998065;28;20191;-80
2024/01/25 09:13:47;;;;;;;7.73;2.40;;;;;;;7.90;47.53;95310.38;5028183;28;20297;-79
2024/01/25 09:16:13;;;;;;;8.37;2.50;;;;;;;7.99;47.49;95316.59;5028070;28;20219;-76
2024/01/25 09:18:39;;;;;;;5.87;2.60;;;;;;;7.95;47.54;95332.59;5008711;28;20231;-73
2024/01/25 09:21:04;;;;;;;8.63;2.80;;;;;;;7.98;46.95;95314.97;5023192;28;20218;-71
2024/01/25 09:23:30;;;;;;;5.70;2.50;;;;;;;8.05;47.14;95321.34;4992827;28;20218;-72
2024/01/25 09:25:55;;;;;;;5.97;2.87;;;;;;;8.12;47.01;95314.63;5025047;28;20220;-71
2024/01/25 09:28:20;;;;;;;5.20;2.67;;;;;;;8.06;47.19;95323.00;5010324;28;20786;-73
2024/01/25 09:30:46;;;;;;;5.20;2.57;;;;;;;8.00;47.07;95313.06;5010147;28;20228;-78
2024/01/25 09:33:11;;;;;;;4.97;2.87;;;;;;;8.05;47.06;95316.13;5010541;28;20242;-70
2024/01/25 09:35:37;;;;;;;7.63;2.80;;;;;;;8.02;47.44;95317.19;5010157;28;20191;-80
2024/01/25 09:38:07;;;;;;;7.80;2.73;;;;;;;8.05;47.02;95306.47;5011758;28;20194;-77
2024/01/25 09:40:33;;;;;;;6.57;2.93;;;;;;;8.05;47.22;95316.94;5007809;28;20215;-78
2024/01/25 09:42:59;;;;;;;7.50;2.87;;;;;;;7.99;47.05;95303.50;5027690;28;20238;-76
2024/01/25 09:45:25;;;;;;;6.60;2.90;;;;;;;7.97;47.38;95297.59;5024785;28;20231;-79
2024/01/25 09:47:50;;;;;;;7.17;3.10;;;;;;;7.98;47.58;95294.84;5027135;28;20230;-80
2024/01/25 09:50:16;;;;;;;6.27;3.27;;;;;;;8.13;47.52;95298.78;5030361;28;20187;-79
2024/01/25 09:52:44;;;;;;;6.97;2.70;;;;;;;8.08;47.46;95281.81;5008043;28;20222;-75
2024/01/25 09:55:17;;;;;;;5.00;2.40;;;;;;;8.23;46.63;95290.13;5011936;28;20226;-74
2024/01/25 09:57:48;;;;;;;5.47;2.47;;;;;;;8.22;47.09;95273.59;5009670;28;20222;-75
2024/01/25 10:00:15;;;;;;;7.17;2.70;;;;;;;8.04;47.09;95288.25;5025249;28;20234;-75
2024/01/25 10:02:41;;;;;;;7.90;3.00;;;;;;;8.23;46.92;95271.78;5006607;28;20265;-73
2024/01/25 10:05:07;;;;;;;6.37;3.07;;;;;;;8.12;47.26;95273.53;5009910;28;20210;-75
2024/01/25 10:07:43;;;;;;;8.23;3.30;;;;;;;8.14;47.33;95270.81;5011640;28;20246;-73
2024/01/25 10:10:10;;;;;;;6.53;3.13;;;;;;;8.01;47.42;95252.69;5026057;28;20226;-73
2024/01/25 10:12:37;;;;;;;6.70;3.60;;;;;;;8.07;47.78;95251.31;5009069;28;20215;-77
2024/01/25 10:15:04;;;;;;;7.50;3.63;;;;;;;8.25;47.48;95248.94;5009725;28;20306;-73
2024/01/25 10:17:30;;;;;;;7.80;3.60;;;;;;;8.44;47.31;95246.41;4992492;28;20187;-72
2024/01/25 10:19:55;;;;;;;8.40;3.90;;;;;;;8.39;47.49;95246.81;5003146;28;20189;-71
2024/01/25 10:22:21;;;;;;;7.97;4.50;;;;;;;8.55;47.36;95235.84;5013735;28;20218;-79
2024/01/25 10:24:50;;;;;;;6.97;3.70;;;;;;;8.57;47.37;95238.31;5032241;28;20282;-81
2024/01/25 10:27:16;;;;;;;6.57;3.87;;;;;;;8.62;46.88;95228.25;5030855;28;20229;-82
2024/01/25 10:29:42;;;;;;;7.43;3.87;;;;;;;8.73;46.76;95237.78;5013391;28;20281;-80
2024/01/25 10:32:09;;;;;;;7.50;3.77;;;;;;;8.86;46.60;95238.38;5013703;28;20282;-77
2024/01/25 10:34:36;;;;;;;6.60;3.57;;;;;;;9.03;46.08;95236.88;5012829;28;20273;-76
2024/01/25 10:37:06;;;;;;;7.53;3.67;;;;;;;9.31;45.59;95234.41;5028555;28;20238;-77
2024/01/25 10:39:33;;;;;;;7.13;3.37;;;;;;;9.37;45.53;95231.22;5011626;28;20227;-78
2024/01/25 10:41:59;;;;;;;6.40;3.13;;;;;;;9.25;45.61;95236.63;5009059;28;20293;-77
2024/01/25 10:44:25;;;;;;;9.73;3.80;;;;;;;9.19;45.75;95238.94;5030736;28;20221;-81
2024/01/25 10:46:51;;;;;;;6.47;3.87;;;;;;;9.27;45.60;95228.59;5012774;28;20220;-79
2024/01/25 10:49:18;;;;;;;6.93;3.17;;;;;;;9.18;45.92;95227.63;5026086;28;20227;-79
2024/01/25 10:51:45;;;;;;;9.90;3.90;;;;;;;9.22;45.73;95225.53;5014933;28;20231;-77
2024/01/25 10:54:14;;;;;;;9.30;3.20;;;;;;;9.41;45.32;95224.72;5015389;28;20226;-83
2024/01/25 10:56:43;;;;;;;6.23;3.53;;;;;;;9.47;45.23;95221.53;5027547;28;20194;-77
2024/01/25 10:59:10;;;;;;;7.83;3.70;;;;;;;9.60;45.56;95216.00;5011634;28;20194;-78
2024/01/25 11:01:36;;;;;;;8.47;3.17;;;;;;;9.78;44.80;95222.16;5013482;28;20307;-77
2024/01/25 11:04:02;;;;;;;5.10;3.33;;;;;;;9.65;44.17;95227.75;5027439;28;20358;-76
2024/01/25 11:06:28;;;;;;;4.90;3.07;;;;;;;9.47;44.07;95232.03;5025358;28;20227;-76
2024/01/25 11:09:06;;;;;;;7.13;3.30;;;;;;;9.71;43.22;95216.66;5010170;28;20219;-79
2024/01/25 11:11:32;;;;;;;6.93;3.00;;;;;;;9.53;43.35;95205.22;5011466;28;20194;-78
2024/01/25 11:13:59;;;;;;;9.80;3.40;;;;;;;9.50;43.78;95210.75;5013340;28;20179;-77
2024/01/25 11:16:38;;;;;;;6.07;3.03;;;;;;;9.19;43.96;95192.53;5013289;28;20246;-76
2024/01/25 11:19:05;;;;;;;8.43;3.40;;;;;;;9.02;44.29;95180.13;5009959;28;20226;-75
2024/01/25 11:21:42;;;;;;;9.63;3.30;;;;;;;8.99;44.75;95170.75;4995552;28;20217;-83
2024/01/25 11:24:16;;;;;;;6.43;3.20;;;;;;;9.10;44.56;95169.78;4993621;28;20262;-73
2024/01/25 11:26:45;;;;;;;5.77;2.97;;;;;;;9.07;44.90;95164.00;4999536;28;20265;-76
2024/01/25 11:29:23;;;;;;;8.13;3.30;;;;;;;9.17;44.97;95173.50;5020502;28;20213;-74
2024/01/25 11:31:51;;;;;;;8.50;3.97;;;;;;;8.99;45.01;95175.19;5027228;28;20345;-75